sensor_id;sensor_type;location;lat;lon;timestamp;pressure;altitude;pressure_sealevel;temperature;humidity
4085;BME280;2057;50.858;6.572;2022-10-31T00:00:57;100841.22;;;14.88;100.00
4085;BME280;2057;50.858;6.572;2022-10-31T00:03:22;100834.41;;;14.89;99.25
4085;BME280;2057;50.858;6.572;2022-10-31T00:05:49;100829.03;;;14.81;100.00
4085;BME280;2057;50.858;6.572;2022-10-31T00:08:16;100820.78;;;14.88;99.85
4085;BME280;2057;50.858;6.572;2022-10-31T00:10:43;100821.06;;;14.73;100.00
4085;BME280;2057;50.858;6.572;2022-10-31T00:13:10;100808.50;;;14.80;100.00
4085;BME280;2057;50.858;6.572;2022-10-31T00:15:37;100814.50;;;14.80;99.75
4085;BME280;2057;50.858;6.572;2022-10-31T00:18:03;100839.84;;;14.53;100.00
4085;BME280;2057;50.858;6.572;2022-10-31T00:20:30;100838.75;;;14.67;100.00
4085;BME280;2057;50.858;6.572;2022-10-31T00:22:59;100844.84;;;14.71;100.00
4085;BME280;2057;50.858;6.572;2022-10-31T00:25:25;100853.53;;;14.76;100.00
4085;BME280;2057;50.858;6.572;2022-10-31T00:27:51;100858.56;;;14.73;100.00
4085;BME280;2057;50.858;6.572;2022-10-31T00:30:16;100861.41;;;14.59;100.00
4085;BME280;2057;50.858;6.572;2022-10-31T00:32:41;100858.59;;;14.74;100.00
4085;BME280;2057;50.858;6.572;2022-10-31T00:35:07;100876.38;;;14.50;100.00
4085;BME280;2057;50.858;6.572;2022-10-31T00:37:32;100877.38;;;14.54;100.00
4085;BME280;2057;50.858;6.572;2022-10-31T00:39:57;100866.34;;;14.55;100.00
4085;BME280;2057;50.858;6.572;2022-10-31T00:42:22;100858.03;;;14.38;100.00
4085;BME280;2057;50.858;6.572;2022-10-31T00:44:48;100853.28;;;14.47;100.00
4085;BME280;2057;50.858;6.572;2022-10-31T00:47:13;100863.41;;;14.46;100.00
4085;BME280;2057;50.858;6.572;2022-10-31T00:49:38;100863.19;;;14.39;100.00
4085;BME280;2057;50.858;6.572;2022-10-31T00:52:04;100848.66;;;14.61;100.00
4085;BME280;2057;50.858;6.572;2022-10-31T00:54:32;100846.47;;;14.48;100.00
4085;BME280;2057;50.858;6.572;2022-10-31T00:56:57;100848.09;;;14.46;100.00
4085;BME280;2057;50.858;6.572;2022-10-31T00:59:23;100843.44;;;14.35;100.00
4085;BME280;2057;50.858;6.572;2022-10-31T01:01:48;100834.91;;;14.35;100.00
4085;BME280;2057;50.858;6.572;2022-10-31T01:04:13;100837.28;;;14.30;100.00
4085;BME280;2057;50.858;6.572;2022-10-31T01:06:40;100840.53;;;14.26;100.00
4085;BME280;2057;50.858;6.572;2022-10-31T01:09:05;100831.34;;;14.31;100.00
4085;BME280;2057;50.858;6.572;2022-10-31T01:11:32;100825.69;;;14.38;100.00
4085;BME280;2057;50.858;6.572;2022-10-31T01:13:58;100841.31;;;14.46;100.00
4085;BME280;2057;50.858;6.572;2022-10-31T01:16:25;100833.13;;;14.55;100.00
4085;BME280;2057;50.858;6.572;2022-10-31T01:18:51;100828.59;;;14.48;100.00
4085;BME280;2057;50.858;6.572;2022-10-31T01:21:22;100834.31;;;14.42;100.00
4085;BME280;2057;50.858;6.572;2022-10-31T01:23:49;100833.03;;;14.31;100.00
4085;BME280;2057;50.858;6.572;2022-10-31T01:26:20;100821.63;;;14.22;100.00
4085;BME280;2057;50.858;6.572;2022-10-31T01:28:51;100818.81;;;14.37;100.00
4085;BME280;2057;50.858;6.572;2022-10-31T01:31:17;100807.66;;;14.35;100.00
4085;BME280;2057;50.858;6.572;2022-10-31T01:33:47;100813.09;;;14.43;100.00
4085;BME280;2057;50.858;6.572;2022-10-31T01:36:21;100814.28;;;14.30;100.00
4085;BME280;2057;50.858;6.572;2022-10-31T01:38:50;100814.94;;;14.03;100.00
4085;BME280;2057;50.858;6.572;2022-10-31T01:41:18;100806.09;;;13.95;100.00
4085;BME280;2057;50.858;6.572;2022-10-31T01:43:45;100804.63;;;14.00;100.00
4085;BME280;2057;50.858;6.572;2022-10-31T01:46:11;100809.97;;;14.06;100.00
4085;BME280;2057;50.858;6.572;2022-10-31T01:48:39;100812.38;;;14.03;100.00
4085;BME280;2057;50.858;6.572;2022-10-31T01:51:05;100818.88;;;13.95;100.00
4085;BME280;2057;50.858;6.572;2022-10-31T01:53:31;100802.06;;;14.00;100.00
4085;BME280;2057;50.858;6.572;2022-10-31T01:55:59;100811.09;;;14.13;100.00
4085;BME280;2057;50.858;6.572;2022-10-31T01:58:27;100804.16;;;13.89;100.00
4085;BME280;2057;50.858;6.572;2022-10-31T02:00:58;100809.72;;;14.00;100.00
4085;BME280;2057;50.858;6.572;2022-10-31T02:03:25;100810.72;;;13.83;100.00
4085;BME280;2057;50.858;6.572;2022-10-31T02:05:52;100823.59;;;13.86;100.00
4085;BME280;2057;50.858;6.572;2022-10-31T02:08:32;100823.53;;;13.84;100.00
4085;BME280;2057;50.858;6.572;2022-10-31T02:11:01;100831.19;;;13.63;100.00
4085;BME280;2057;50.858;6.572;2022-10-31T02:13:28;100822.72;;;13.64;100.00
4085;BME280;2057;50.858;6.572;2022-10-31T02:15:57;100814.94;;;13.61;100.00
4085;BME280;2057;50.858;6.572;2022-10-31T02:18:26;100808.50;;;13.49;100.00
4085;BME280;2057;50.858;6.572;2022-10-31T02:23:45;100813.47;;;13.46;100.00
4085;BME280;2057;50.858;6.572;2022-10-31T02:29:15;100825.16;;;13.41;100.00
4085;BME280;2057;50.858;6.572;2022-10-31T02:32:08;100825.16;;;13.22;100.00
4085;BME280;2057;50.858;6.572;2022-10-31T02:34:54;100817.13;;;12.94;100.00
4085;BME280;2057;50.858;6.572;2022-10-31T02:37:37;100815.72;;;12.81;100.00
4085;BME280;2057;50.858;6.572;2022-10-31T02:42:33;100816.75;;;13.05;100.00
4085;BME280;2057;50.858;6.572;2022-10-31T02:45:14;100814.25;;;13.06;100.00
4085;BME280;2057;50.858;6.572;2022-10-31T02:47:44;100822.66;;;13.23;100.00
4085;BME280;2057;50.858;6.572;2022-10-31T02:50:21;100814.94;;;13.22;100.00
4085;BME280;2057;50.858;6.572;2022-10-31T02:52:52;100805.06;;;13.10;100.00
4085;BME280;2057;50.858;6.572;2022-10-31T02:57:54;100810.88;;;12.68;100.00
4085;BME280;2057;50.858;6.572;2022-10-31T03:00:22;100808.50;;;12.53;100.00
4085;BME280;2057;50.858;6.572;2022-10-31T03:03:00;100810.50;;;12.78;100.00
4085;BME280;2057;50.858;6.572;2022-10-31T03:08:37;100809.94;;;12.66;100.00
4085;BME280;2057;50.858;6.572;2022-10-31T03:11:08;100819.09;;;12.62;100.00
4085;BME280;2057;50.858;6.572;2022-10-31T03:19:01;100821.06;;;12.68;100.00
4085;BME280;2057;50.858;6.572;2022-10-31T03:21:47;100826.38;;;12.73;100.00
4085;BME280;2057;50.858;6.572;2022-10-31T03:24:15;100817.78;;;12.70;100.00
4085;BME280;2057;50.858;6.572;2022-10-31T03:26:44;100815.28;;;12.72;100.00
4085;BME280;2057;50.858;6.572;2022-10-31T03:29:14;100815.50;;;12.77;100.00
4085;BME280;2057;50.858;6.572;2022-10-31T03:31:55;100816.50;;;12.80;100.00
4085;BME280;2057;50.858;6.572;2022-10-31T03:34:22;100815.44;;;12.75;100.00
4085;BME280;2057;50.858;6.572;2022-10-31T03:36:50;100807.22;;;12.81;100.00
4085;BME280;2057;50.858;6.572;2022-10-31T03:39:19;100796.88;;;12.97;100.00
4085;BME280;2057;50.858;6.572;2022-10-31T03:41:56;100794.53;;;13.02;100.00
4085;BME280;2057;50.858;6.572;2022-10-31T03:44:26;100786.00;;;13.21;100.00
4085;BME280;2057;50.858;6.572;2022-10-31T03:46:54;100798.75;;;13.01;100.00
4085;BME280;2057;50.858;6.572;2022-10-31T03:49:20;100803.13;;;13.04;100.00
4085;BME280;2057;50.858;6.572;2022-10-31T03:51:53;100803.19;;;12.86;100.00
4085;BME280;2057;50.858;6.572;2022-10-31T03:56:50;100799.97;;;12.90;100.00
4085;BME280;2057;50.858;6.572;2022-10-31T03:59:21;100798.97;;;13.06;100.00
4085;BME280;2057;50.858;6.572;2022-10-31T04:01:52;100802.72;;;12.95;100.00
4085;BME280;2057;50.858;6.572;2022-10-31T04:04:19;100810.06;;;12.69;100.00
4085;BME280;2057;50.858;6.572;2022-10-31T04:06:46;100797.50;;;12.92;100.00
4085;BME280;2057;50.858;6.572;2022-10-31T04:09:13;100799.84;;;12.87;100.00
4085;BME280;2057;50.858;6.572;2022-10-31T04:11:53;100800.44;;;13.01;100.00
4085;BME280;2057;50.858;6.572;2022-10-31T04:14:20;100797.22;;;13.05;100.00
4085;BME280;2057;50.858;6.572;2022-10-31T04:16:47;100804.00;;;13.24;100.00
4085;BME280;2057;50.858;6.572;2022-10-31T04:19:14;100808.66;;;13.13;100.00
4085;BME280;2057;50.858;6.572;2022-10-31T04:21:39;100793.94;;;13.08;100.00
4085;BME280;2057;50.858;6.572;2022-10-31T04:24:08;100800.72;;;13.07;100.00
4085;BME280;2057;50.858;6.572;2022-10-31T04:26:33;100803.25;;;13.07;100.00
4085;BME280;2057;50.858;6.572;2022-10-31T04:28:59;100803.19;;;13.06;100.00
4085;BME280;2057;50.858;6.572;2022-10-31T04:31:24;100802.84;;;13.17;100.00
4085;BME280;2057;50.858;6.572;2022-10-31T04:33:49;100797.75;;;13.17;100.00
4085;BME280;2057;50.858;6.572;2022-10-31T04:36:15;100793.16;;;13.09;100.00
4085;BME280;2057;50.858;6.572;2022-10-31T04:38:42;100786.63;;;13.15;100.00
4085;BME280;2057;50.858;6.572;2022-10-31T04:41:08;100783.66;;;13.26;100.00
4085;BME280;2057;50.858;6.572;2022-10-31T04:43:33;100787.81;;;13.24;100.00
4085;BME280;2057;50.858;6.572;2022-10-31T04:45:58;100776.63;;;13.20;100.00
4085;BME280;2057;50.858;6.572;2022-10-31T04:48:24;100772.41;;;13.21;100.00
4085;BME280;2057;50.858;6.572;2022-10-31T04:50:50;100772.25;;;13.37;100.00
4085;BME280;2057;50.858;6.572;2022-10-31T04:53:15;100780.00;;;13.39;100.00
4085;BME280;2057;50.858;6.572;2022-10-31T04:55:40;100785.56;;;13.30;100.00
4085;BME280;2057;50.858;6.572;2022-10-31T04:58:06;100786.56;;;13.14;100.00
4085;BME280;2057;50.858;6.572;2022-10-31T05:00:31;100783.06;;;12.92;100.00
4085;BME280;2057;50.858;6.572;2022-10-31T05:02:59;100782.47;;;12.78;100.00
4085;BME280;2057;50.858;6.572;2022-10-31T05:05:27;100782.53;;;12.80;100.00
4085;BME280;2057;50.858;6.572;2022-10-31T05:07:52;100777.63;;;12.84;100.00
4085;BME280;2057;50.858;6.572;2022-10-31T05:10:20;100771.25;;;12.75;100.00
4085;BME280;2057;50.858;6.572;2022-10-31T05:12:51;100771.81;;;13.07;100.00
4085;BME280;2057;50.858;6.572;2022-10-31T05:15:17;100764.38;;;13.11;100.00
4085;BME280;2057;50.858;6.572;2022-10-31T05:17:43;100762.88;;;13.16;100.00
4085;BME280;2057;50.858;6.572;2022-10-31T05:20:10;100766.91;;;13.11;100.00
4085;BME280;2057;50.858;6.572;2022-10-31T05:22:36;100762.47;;;13.07;100.00
4085;BME280;2057;50.858;6.572;2022-10-31T05:25:01;100767.31;;;13.01;100.00
4085;BME280;2057;50.858;6.572;2022-10-31T05:27:27;100757.25;;;13.04;100.00
4085;BME280;2057;50.858;6.572;2022-10-31T05:29:52;100757.25;;;13.04;100.00
4085;BME280;2057;50.858;6.572;2022-10-31T05:32:18;100751.63;;;12.92;100.00
4085;BME280;2057;50.858;6.572;2022-10-31T05:34:43;100746.25;;;12.85;100.00
4085;BME280;2057;50.858;6.572;2022-10-31T05:37:08;100754.09;;;12.90;100.00
4085;BME280;2057;50.858;6.572;2022-10-31T05:39:33;100748.72;;;12.84;100.00
4085;BME280;2057;50.858;6.572;2022-10-31T05:41:59;100757.56;;;12.92;100.00
4085;BME280;2057;50.858;6.572;2022-10-31T05:44:24;100759.81;;;12.84;100.00
4085;BME280;2057;50.858;6.572;2022-10-31T05:46:49;100749.13;;;12.93;100.00
4085;BME280;2057;50.858;6.572;2022-10-31T05:49:15;100746.84;;;12.80;100.00
4085;BME280;2057;50.858;6.572;2022-10-31T05:51:42;100750.19;;;12.79;100.00
4085;BME280;2057;50.858;6.572;2022-10-31T05:54:07;100750.16;;;12.77;100.00
4085;BME280;2057;50.858;6.572;2022-10-31T05:56:33;100748.53;;;12.60;100.00
4085;BME280;2057;50.858;6.572;2022-10-31T05:59:01;100748.03;;;12.68;100.00
4085;BME280;2057;50.858;6.572;2022-10-31T06:01:26;100749.31;;;12.59;100.00
4085;BME280;2057;50.858;6.572;2022-10-31T06:03:51;100745.69;;;12.73;100.00
4085;BME280;2057;50.858;6.572;2022-10-31T06:06:19;100746.72;;;12.77;100.00
4085;BME280;2057;50.858;6.572;2022-10-31T06:08:44;100746.38;;;12.69;100.00
4085;BME280;2057;50.858;6.572;2022-10-31T06:11:12;100744.84;;;12.73;100.00
4085;BME280;2057;50.858;6.572;2022-10-31T06:13:37;100744.78;;;12.91;100.00
4085;BME280;2057;50.858;6.572;2022-10-31T06:16:02;100738.66;;;12.87;100.00
4085;BME280;2057;50.858;6.572;2022-10-31T06:18:28;100740.47;;;12.90;100.00
4085;BME280;2057;50.858;6.572;2022-10-31T06:20:53;100747.38;;;12.92;100.00
4085;BME280;2057;50.858;6.572;2022-10-31T06:23:18;100744.91;;;12.94;100.00
4085;BME280;2057;50.858;6.572;2022-10-31T06:25:49;100748.66;;;12.82;100.00
4085;BME280;2057;50.858;6.572;2022-10-31T06:28:14;100742.75;;;12.83;100.00
4085;BME280;2057;50.858;6.572;2022-10-31T06:30:39;100735.47;;;12.91;100.00
4085;BME280;2057;50.858;6.572;2022-10-31T06:33:05;100734.44;;;12.87;100.00
4085;BME280;2057;50.858;6.572;2022-10-31T06:35:30;100736.66;;;12.99;100.00
4085;BME280;2057;50.858;6.572;2022-10-31T06:37:56;100731.22;;;12.92;100.00
4085;BME280;2057;50.858;6.572;2022-10-31T06:40:22;100740.56;;;12.91;100.00
4085;BME280;2057;50.858;6.572;2022-10-31T06:42:47;100741.47;;;12.93;100.00
4085;BME280;2057;50.858;6.572;2022-10-31T06:45:20;100738.75;;;12.69;100.00
4085;BME280;2057;50.858;6.572;2022-10-31T06:47:50;100735.03;;;12.62;100.00
4085;BME280;2057;50.858;6.572;2022-10-31T06:50:16;100732.44;;;12.61;100.00
4085;BME280;2057;50.858;6.572;2022-10-31T06:52:41;100737.38;;;12.58;100.00
4085;BME280;2057;50.858;6.572;2022-10-31T06:55:07;100739.25;;;12.62;100.00
4085;BME280;2057;50.858;6.572;2022-10-31T06:57:32;100747.31;;;12.71;100.00
4085;BME280;2057;50.858;6.572;2022-10-31T06:59:59;100751.94;;;12.80;100.00
4085;BME280;2057;50.858;6.572;2022-10-31T07:02:25;100755.84;;;12.91;100.00
4085;BME280;2057;50.858;6.572;2022-10-31T07:04:50;100754.81;;;12.87;100.00
4085;BME280;2057;50.858;6.572;2022-10-31T07:07:18;100764.53;;;12.77;100.00
4085;BME280;2057;50.858;6.572;2022-10-31T07:09:46;100759.97;;;12.69;100.00
4085;BME280;2057;50.858;6.572;2022-10-31T07:12:11;100764.66;;;12.60;100.00
4085;BME280;2057;50.858;6.572;2022-10-31T07:14:36;100761.31;;;12.61;100.00
4085;BME280;2057;50.858;6.572;2022-10-31T07:17:02;100749.66;;;12.66;100.00
4085;BME280;2057;50.858;6.572;2022-10-31T07:19:27;100760.88;;;12.70;100.00
4085;BME280;2057;50.858;6.572;2022-10-31T07:21:52;100754.88;;;12.69;100.00
4085;BME280;2057;50.858;6.572;2022-10-31T07:24:18;100753.28;;;12.71;100.00
4085;BME280;2057;50.858;6.572;2022-10-31T07:26:43;100749.34;;;12.78;100.00
4085;BME280;2057;50.858;6.572;2022-10-31T07:29:10;100758.84;;;12.82;100.00
4085;BME280;2057;50.858;6.572;2022-10-31T07:31:36;100767.25;;;12.99;100.00
4085;BME280;2057;50.858;6.572;2022-10-31T07:34:01;100766.44;;;13.00;100.00
4085;BME280;2057;50.858;6.572;2022-10-31T07:36:27;100766.38;;;12.99;100.00
4085;BME280;2057;50.858;6.572;2022-10-31T07:38:52;100766.50;;;13.02;100.00
4085;BME280;2057;50.858;6.572;2022-10-31T07:41:17;100763.22;;;13.05;100.00
4085;BME280;2057;50.858;6.572;2022-10-31T07:43:42;100760.53;;;13.01;100.00
4085;BME280;2057;50.858;6.572;2022-10-31T07:46:08;100765.81;;;13.06;100.00
4085;BME280;2057;50.858;6.572;2022-10-31T07:48:33;100772.59;;;13.06;100.00
4085;BME280;2057;50.858;6.572;2022-10-31T07:50:58;100770.19;;;13.09;100.00
4085;BME280;2057;50.858;6.572;2022-10-31T07:53:24;100764.06;;;13.25;100.00
4085;BME280;2057;50.858;6.572;2022-10-31T07:55:49;100768.38;;;13.26;100.00
4085;BME280;2057;50.858;6.572;2022-10-31T07:58:16;100764.75;;;13.21;100.00
4085;BME280;2057;50.858;6.572;2022-10-31T08:00:44;100762.00;;;13.16;100.00
4085;BME280;2057;50.858;6.572;2022-10-31T08:03:11;100759.72;;;13.22;100.00
4085;BME280;2057;50.858;6.572;2022-10-31T08:05:38;100764.63;;;13.17;100.00
4085;BME280;2057;50.858;6.572;2022-10-31T08:08:04;100761.81;;;13.11;100.00
4085;BME280;2057;50.858;6.572;2022-10-31T08:10:30;100764.31;;;13.31;100.00
4085;BME280;2057;50.858;6.572;2022-10-31T08:15:51;100764.41;;;13.32;100.00
4085;BME280;2057;50.858;6.572;2022-10-31T08:18:18;100773.72;;;13.32;100.00
4085;BME280;2057;50.858;6.572;2022-10-31T08:20:44;100774.47;;;13.29;100.00
4085;BME280;2057;50.858;6.572;2022-10-31T08:23:11;100769.50;;;13.32;100.00
4085;BME280;2057;50.858;6.572;2022-10-31T08:25:37;100770.03;;;13.45;100.00
4085;BME280;2057;50.858;6.572;2022-10-31T08:28:03;100770.03;;;13.45;100.00
4085;BME280;2057;50.858;6.572;2022-10-31T08:30:31;100765.44;;;13.57;100.00
4085;BME280;2057;50.858;6.572;2022-10-31T08:33:01;100762.97;;;13.59;100.00
4085;BME280;2057;50.858;6.572;2022-10-31T08:35:27;100756.25;;;13.61;100.00
4085;BME280;2057;50.858;6.572;2022-10-31T08:37:55;100761.59;;;13.67;100.00
4085;BME280;2057;50.858;6.572;2022-10-31T08:40:22;100757.75;;;13.77;100.00
4085;BME280;2057;50.858;6.572;2022-10-31T08:42:55;100757.41;;;13.90;100.00
4085;BME280;2057;50.858;6.572;2022-10-31T08:45:20;100745.63;;;13.94;100.00
4085;BME280;2057;50.858;6.572;2022-10-31T08:47:46;100745.59;;;14.15;100.00
4085;BME280;2057;50.858;6.572;2022-10-31T08:50:13;100745.72;;;14.18;100.00
4085;BME280;2057;50.858;6.572;2022-10-31T08:52:38;100752.47;;;14.16;100.00
4085;BME280;2057;50.858;6.572;2022-10-31T08:55:04;100736.00;;;14.55;100.00
4085;BME280;2057;50.858;6.572;2022-10-31T08:57:30;100723.72;;;14.44;100.00
4085;BME280;2057;50.858;6.572;2022-10-31T08:59:55;100725.78;;;14.55;100.00
4085;BME280;2057;50.858;6.572;2022-10-31T09:02:20;100725.28;;;14.64;100.00
4085;BME280;2057;50.858;6.572;2022-10-31T09:04:46;100721.63;;;14.57;100.00
4085;BME280;2057;50.858;6.572;2022-10-31T09:07:11;100713.63;;;14.48;100.00
4085;BME280;2057;50.858;6.572;2022-10-31T09:09:36;100715.63;;;14.32;100.00
4085;BME280;2057;50.858;6.572;2022-10-31T09:12:02;100707.00;;;14.30;100.00
4085;BME280;2057;50.858;6.572;2022-10-31T09:14:27;100702.19;;;14.38;100.00
4085;BME280;2057;50.858;6.572;2022-10-31T09:16:53;100700.03;;;14.49;100.00
4085;BME280;2057;50.858;6.572;2022-10-31T09:19:18;100695.72;;;14.48;100.00
4085;BME280;2057;50.858;6.572;2022-10-31T09:21:43;100692.50;;;14.29;100.00
4085;BME280;2057;50.858;6.572;2022-10-31T09:24:09;100700.13;;;14.27;100.00
4085;BME280;2057;50.858;6.572;2022-10-31T09:26:34;100693.06;;;14.44;100.00
4085;BME280;2057;50.858;6.572;2022-10-31T09:28:59;100689.34;;;14.36;100.00
4085;BME280;2057;50.858;6.572;2022-10-31T09:31:27;100691.22;;;14.40;100.00
4085;BME280;2057;50.858;6.572;2022-10-31T09:33:53;100689.78;;;14.47;100.00
4085;BME280;2057;50.858;6.572;2022-10-31T09:36:19;100677.09;;;14.50;100.00
4085;BME280;2057;50.858;6.572;2022-10-31T09:38:44;100675.03;;;14.64;100.00
4085;BME280;2057;50.858;6.572;2022-10-31T09:43:58;100663.28;;;14.94;100.00
4085;BME280;2057;50.858;6.572;2022-10-31T09:49:36;100647.94;;;14.94;100.00
4085;BME280;2057;50.858;6.572;2022-10-31T09:52:29;100646.50;;;15.02;100.00
4085;BME280;2057;50.858;6.572;2022-10-31T09:55:02;100642.06;;;15.22;100.00
4085;BME280;2057;50.858;6.572;2022-10-31T09:57:33;100639.50;;;15.22;100.00
4085;BME280;2057;50.858;6.572;2022-10-31T09:59:59;100633.22;;;15.40;100.00
4085;BME280;2057;50.858;6.572;2022-10-31T10:02:38;100633.75;;;15.57;100.00
4085;BME280;2057;50.858;6.572;2022-10-31T10:05:11;100619.13;;;15.52;100.00
4085;BME280;2057;50.858;6.572;2022-10-31T10:10:51;100606.59;;;15.62;100.00
4085;BME280;2057;50.858;6.572;2022-10-31T10:19:07;100596.88;;;15.79;100.00
4085;BME280;2057;50.858;6.572;2022-10-31T10:21:46;100605.00;;;15.93;100.00
4085;BME280;2057;50.858;6.572;2022-10-31T10:24:24;100605.44;;;16.08;100.00
4085;BME280;2057;50.858;6.572;2022-10-31T10:29:32;100621.16;;;15.90;99.93
4085;BME280;2057;50.858;6.572;2022-10-31T10:32:01;100608.03;;;16.10;99.67
4085;BME280;2057;50.858;6.572;2022-10-31T10:34:47;100613.34;;;16.16;100.00
4085;BME280;2057;50.858;6.572;2022-10-31T10:37:54;100608.50;;;16.25;100.00
4085;BME280;2057;50.858;6.572;2022-10-31T10:40:27;100603.69;;;16.38;99.58
4085;BME280;2057;50.858;6.572;2022-10-31T10:49:18;100599.91;;;16.57;99.45
4085;BME280;2057;50.858;6.572;2022-10-31T10:54:41;100598.84;;;16.49;99.07
4085;BME280;2057;50.858;6.572;2022-10-31T10:59:47;100616.81;;;16.84;97.68
4085;BME280;2057;50.858;6.572;2022-10-31T11:02:18;100618.66;;;16.88;98.29
4085;BME280;2057;50.858;6.572;2022-10-31T11:04:45;100611.53;;;16.76;99.16
4085;BME280;2057;50.858;6.572;2022-10-31T11:07:12;100602.22;;;16.80;99.44
4085;BME280;2057;50.858;6.572;2022-10-31T11:09:38;100602.63;;;16.95;98.50
4085;BME280;2057;50.858;6.572;2022-10-31T11:12:15;100588.31;;;17.05;98.12
4085;BME280;2057;50.858;6.572;2022-10-31T11:14:49;100578.44;;;16.87;97.97
4085;BME280;2057;50.858;6.572;2022-10-31T11:17:34;100562.94;;;16.81;99.56
4085;BME280;2057;50.858;6.572;2022-10-31T11:20:23;100564.84;;;16.89;99.49
4085;BME280;2057;50.858;6.572;2022-10-31T11:23:04;100553.63;;;16.86;98.75
4085;BME280;2057;50.858;6.572;2022-10-31T11:25:30;100555.66;;;16.98;97.90
4085;BME280;2057;50.858;6.572;2022-10-31T11:28:08;100552.34;;;17.02;98.62
4085;BME280;2057;50.858;6.572;2022-10-31T11:30:55;100549.81;;;17.03;97.06
4085;BME280;2057;50.858;6.572;2022-10-31T11:33:29;100539.53;;;17.03;95.61
4085;BME280;2057;50.858;6.572;2022-10-31T11:35:56;100538.59;;;17.00;94.67
4085;BME280;2057;50.858;6.572;2022-10-31T11:38:24;100534.22;;;16.96;93.76
4085;BME280;2057;50.858;6.572;2022-10-31T11:41:00;100517.94;;;16.93;94.55
4085;BME280;2057;50.858;6.572;2022-10-31T11:43:29;100516.97;;;16.90;94.30
4085;BME280;2057;50.858;6.572;2022-10-31T11:45:56;100502.31;;;16.84;94.20
4085;BME280;2057;50.858;6.572;2022-10-31T11:48:23;100499.88;;;16.90;94.12
4085;BME280;2057;50.858;6.572;2022-10-31T11:50:55;100498.31;;;16.96;93.96
4085;BME280;2057;50.858;6.572;2022-10-31T11:53:31;100495.13;;;17.06;93.93
4085;BME280;2057;50.858;6.572;2022-10-31T11:58:31;100497.78;;;17.09;93.57
4085;BME280;2057;50.858;6.572;2022-10-31T12:00:57;100495.38;;;17.17;94.12
4085;BME280;2057;50.858;6.572;2022-10-31T12:05:58;100488.53;;;17.16;93.46
4085;BME280;2057;50.858;6.572;2022-10-31T12:08:29;100485.16;;;17.18;92.91
4085;BME280;2057;50.858;6.572;2022-10-31T12:16:02;100475.66;;;17.14;93.49
4085;BME280;2057;50.858;6.572;2022-10-31T12:27:03;100445.75;;;17.15;94.70
4085;BME280;2057;50.858;6.572;2022-10-31T12:32:26;100423.47;;;17.12;95.74
4085;BME280;2057;50.858;6.572;2022-10-31T12:42:52;100388.03;;;16.96;96.32
4085;BME280;2057;50.858;6.572;2022-10-31T12:53:51;100363.41;;;17.04;97.44
4085;BME280;2057;50.858;6.572;2022-10-31T12:59:16;100371.34;;;17.16;96.24
4085;BME280;2057;50.858;6.572;2022-10-31T13:01:54;100367.16;;;17.21;95.14
4085;BME280;2057;50.858;6.572;2022-10-31T13:04:39;100371.38;;;17.18;95.08
4085;BME280;2057;50.858;6.572;2022-10-31T13:07:15;100381.34;;;17.04;95.91
4085;BME280;2057;50.858;6.572;2022-10-31T13:12:19;100367.66;;;17.02;96.07
4085;BME280;2057;50.858;6.572;2022-10-31T13:14:56;100361.78;;;17.07;96.85
4085;BME280;2057;50.858;6.572;2022-10-31T13:17:37;100357.25;;;16.96;97.78
4085;BME280;2057;50.858;6.572;2022-10-31T13:20:15;100340.16;;;16.95;98.31
4085;BME280;2057;50.858;6.572;2022-10-31T13:22:46;100336.00;;;17.01;97.18
4085;BME280;2057;50.858;6.572;2022-10-31T13:25:24;100331.59;;;16.94;97.79
4085;BME280;2057;50.858;6.572;2022-10-31T13:27:57;100332.59;;;17.02;96.78
4085;BME280;2057;50.858;6.572;2022-10-31T13:30:27;100327.34;;;16.95;97.32
4085;BME280;2057;50.858;6.572;2022-10-31T13:35:49;100326.00;;;17.14;96.15
4085;BME280;2057;50.858;6.572;2022-10-31T13:38:23;100318.09;;;17.04;96.19
4085;BME280;2057;50.858;6.572;2022-10-31T13:44:04;100313.28;;;17.20;96.07
4085;BME280;2057;50.858;6.572;2022-10-31T13:46:38;100297.84;;;17.18;95.21
4085;BME280;2057;50.858;6.572;2022-10-31T13:49:40;100295.84;;;17.02;95.46
4085;BME280;2057;50.858;6.572;2022-10-31T13:54:42;100286.38;;;16.99;95.34
4085;BME280;2057;50.858;6.572;2022-10-31T13:57:31;100275.25;;;16.99;95.27
4085;BME280;2057;50.858;6.572;2022-10-31T14:00:00;100264.16;;;17.00;94.42
4085;BME280;2057;50.858;6.572;2022-10-31T14:02:35;100254.88;;;17.06;93.69
4085;BME280;2057;50.858;6.572;2022-10-31T14:05:05;100236.88;;;17.05;93.97
4085;BME280;2057;50.858;6.572;2022-10-31T14:07:32;100228.06;;;16.92;93.93
4085;BME280;2057;50.858;6.572;2022-10-31T14:10:06;100228.03;;;16.90;94.17
4085;BME280;2057;50.858;6.572;2022-10-31T14:12:46;100219.50;;;16.90;94.23
4085;BME280;2057;50.858;6.572;2022-10-31T14:15:18;100221.16;;;16.86;94.17
4085;BME280;2057;50.858;6.572;2022-10-31T14:18:05;100211.66;;;16.82;93.76
4085;BME280;2057;50.858;6.572;2022-10-31T14:20:38;100217.91;;;16.95;93.24
4085;BME280;2057;50.858;6.572;2022-10-31T14:25:53;100201.66;;;16.95;93.92
4085;BME280;2057;50.858;6.572;2022-10-31T14:30:56;100201.88;;;17.07;92.82
4085;BME280;2057;50.858;6.572;2022-10-31T14:33:25;100200.28;;;17.12;92.87
4085;BME280;2057;50.858;6.572;2022-10-31T14:36:18;100210.47;;;17.11;91.77
4085;BME280;2057;50.858;6.572;2022-10-31T14:38:54;100214.00;;;17.16;91.55
4085;BME280;2057;50.858;6.572;2022-10-31T14:42:01;100209.72;;;17.16;90.77
4085;BME280;2057;50.858;6.572;2022-10-31T14:44:47;100203.84;;;17.23;90.76
4085;BME280;2057;50.858;6.572;2022-10-31T14:50:27;100192.09;;;17.35;89.94
4085;BME280;2057;50.858;6.572;2022-10-31T14:53:01;100192.00;;;17.29;89.76
4085;BME280;2057;50.858;6.572;2022-10-31T14:55:28;100182.63;;;17.32;90.48
4085;BME280;2057;50.858;6.572;2022-10-31T14:58:03;100173.16;;;17.30;90.04
4085;BME280;2057;50.858;6.572;2022-10-31T15:00:32;100175.69;;;17.25;90.08
4085;BME280;2057;50.858;6.572;2022-10-31T15:03:24;100173.13;;;17.25;90.07
4085;BME280;2057;50.858;6.572;2022-10-31T15:05:56;100163.78;;;17.30;90.00
4085;BME280;2057;50.858;6.572;2022-10-31T15:08:38;100163.63;;;17.22;90.57